sensor_id;sensor_type;location;lat;lon;timestamp;P1;durP1;ratioP1;P2;durP2;ratioP2
6828;SDS011;17930;48.592;8.868;2023-04-09T00:00:18;16.45;;;10.77;;
6828;SDS011;17930;48.592;8.868;2023-04-09T00:02:45;15.25;;;9.60;;
6828;SDS011;17930;48.592;8.868;2023-04-09T00:05:12;13.18;;;9.57;;
6828;SDS011;17930;48.592;8.868;2023-04-09T00:07:38;16.95;;;10.15;;
6828;SDS011;17930;48.592;8.868;2023-04-09T00:10:07;14.70;;;9.90;;
6828;SDS011;17930;48.592;8.868;2023-04-09T00:12:34;17.17;;;9.30;;
6828;SDS011;17930;48.592;8.868;2023-04-09T00:15:02;13.82;;;9.23;;
6828;SDS011;17930;48.592;8.868;2023-04-09T00:17:28;13.73;;;9.63;;
6828;SDS011;17930;48.592;8.868;2023-04-09T00:19:55;14.52;;;9.52;;
6828;SDS011;17930;48.592;8.868;2023-04-09T00:22:22;12.63;;;8.90;;
6828;SDS011;17930;48.592;8.868;2023-04-09T00:24:49;13.23;;;8.68;;
6828;SDS011;17930;48.592;8.868;2023-04-09T00:27:17;12.95;;;9.40;;
6828;SDS011;17930;48.592;8.868;2023-04-09T00:29:44;13.20;;;8.60;;
6828;SDS011;17930;48.592;8.868;2023-04-09T00:32:11;14.27;;;9.15;;
6828;SDS011;17930;48.592;8.868;2023-04-09T00:34:38;14.73;;;9.57;;
6828;SDS011;17930;48.592;8.868;2023-04-09T00:37:05;16.42;;;9.27;;
6828;SDS011;17930;48.592;8.868;2023-04-09T00:39:31;15.68;;;9.60;;
6828;SDS011;17930;48.592;8.868;2023-04-09T00:41:58;19.45;;;9.95;;
6828;SDS011;17930;48.592;8.868;2023-04-09T00:44:28;15.02;;;9.52;;
6828;SDS011;17930;48.592;8.868;2023-04-09T00:46:54;13.02;;;9.20;;
6828;SDS011;17930;48.592;8.868;2023-04-09T00:49:23;15.57;;;9.00;;
6828;SDS011;17930;48.592;8.868;2023-04-09T00:51:50;14.15;;;9.15;;
6828;SDS011;17930;48.592;8.868;2023-04-09T00:54:17;13.93;;;9.25;;
6828;SDS011;17930;48.592;8.868;2023-04-09T00:56:44;14.50;;;9.13;;
6828;SDS011;17930;48.592;8.868;2023-04-09T00:59:12;15.05;;;9.27;;
6828;SDS011;17930;48.592;8.868;2023-04-09T01:01:40;15.05;;;9.63;;
6828;SDS011;17930;48.592;8.868;2023-04-09T01:04:07;13.10;;;8.80;;
6828;SDS011;17930;48.592;8.868;2023-04-09T01:06:37;14.43;;;9.35;;
6828;SDS011;17930;48.592;8.868;2023-04-09T01:09:09;17.67;;;9.85;;
6828;SDS011;17930;48.592;8.868;2023-04-09T01:11:45;16.25;;;8.90;;
6828;SDS011;17930;48.592;8.868;2023-04-09T01:14:23;13.30;;;9.10;;
6828;SDS011;17930;48.592;8.868;2023-04-09T01:16:56;15.73;;;9.82;;
6828;SDS011;17930;48.592;8.868;2023-04-09T01:19:33;15.70;;;10.05;;
6828;SDS011;17930;48.592;8.868;2023-04-09T01:22:09;15.88;;;9.20;;
6828;SDS011;17930;48.592;8.868;2023-04-09T01:24:55;13.73;;;9.50;;
6828;SDS011;17930;48.592;8.868;2023-04-09T01:27:29;15.15;;;10.40;;
6828;SDS011;17930;48.592;8.868;2023-04-09T01:30:05;17.23;;;10.05;;
6828;SDS011;17930;48.592;8.868;2023-04-09T01:32:32;14.73;;;9.63;;
6828;SDS011;17930;48.592;8.868;2023-04-09T01:35:02;12.80;;;9.70;;
6828;SDS011;17930;48.592;8.868;2023-04-09T01:37:30;16.30;;;10.30;;
6828;SDS011;17930;48.592;8.868;2023-04-09T01:39:58;14.57;;;9.32;;
6828;SDS011;17930;48.592;8.868;2023-04-09T01:42:25;15.55;;;10.38;;
6828;SDS011;17930;48.592;8.868;2023-04-09T01:44:53;16.73;;;10.10;;
6828;SDS011;17930;48.592;8.868;2023-04-09T01:47:22;14.45;;;9.70;;
6828;SDS011;17930;48.592;8.868;2023-04-09T01:49:49;16.35;;;10.15;;
6828;SDS011;17930;48.592;8.868;2023-04-09T01:52:17;12.68;;;9.63;;
6828;SDS011;17930;48.592;8.868;2023-04-09T01:54:43;17.65;;;10.55;;
6828;SDS011;17930;48.592;8.868;2023-04-09T01:57:10;15.50;;;10.65;;
6828;SDS011;17930;48.592;8.868;2023-04-09T01:59:36;17.50;;;10.52;;
6828;SDS011;17930;48.592;8.868;2023-04-09T02:02:04;14.68;;;9.57;;
6828;SDS011;17930;48.592;8.868;2023-04-09T02:04:38;18.65;;;10.20;;
6828;SDS011;17930;48.592;8.868;2023-04-09T02:07:09;18.17;;;9.55;;
6828;SDS011;17930;48.592;8.868;2023-04-09T02:09:40;15.93;;;9.80;;
6828;SDS011;17930;48.592;8.868;2023-04-09T02:12:11;14.85;;;10.50;;
6828;SDS011;17930;48.592;8.868;2023-04-09T02:14:39;17.35;;;9.32;;
6828;SDS011;17930;48.592;8.868;2023-04-09T02:17:06;15.55;;;10.70;;
6828;SDS011;17930;48.592;8.868;2023-04-09T02:19:41;15.52;;;9.85;;
6828;SDS011;17930;48.592;8.868;2023-04-09T02:22:09;15.48;;;10.07;;
6828;SDS011;17930;48.592;8.868;2023-04-09T02:24:37;18.05;;;10.00;;
6828;SDS011;17930;48.592;8.868;2023-04-09T02:27:04;15.35;;;10.00;;
6828;SDS011;17930;48.592;8.868;2023-04-09T02:29:31;13.07;;;9.27;;
6828;SDS011;17930;48.592;8.868;2023-04-09T02:31:58;16.17;;;9.95;;
6828;SDS011;17930;48.592;8.868;2023-04-09T02:34:25;16.55;;;9.90;;
6828;SDS011;17930;48.592;8.868;2023-04-09T02:36:53;17.80;;;9.68;;
6828;SDS011;17930;48.592;8.868;2023-04-09T02:39:20;14.90;;;9.48;;
6828;SDS011;17930;48.592;8.868;2023-04-09T02:41:47;17.17;;;10.70;;
6828;SDS011;17930;48.592;8.868;2023-04-09T02:44:13;15.95;;;9.50;;
6828;SDS011;17930;48.592;8.868;2023-04-09T02:46:40;15.18;;;9.98;;
6828;SDS011;17930;48.592;8.868;2023-04-09T02:49:07;13.75;;;9.50;;
6828;SDS011;17930;48.592;8.868;2023-04-09T02:51:34;13.80;;;9.18;;
6828;SDS011;17930;48.592;8.868;2023-04-09T02:54:03;16.08;;;9.82;;
6828;SDS011;17930;48.592;8.868;2023-04-09T02:56:29;17.30;;;10.57;;
6828;SDS011;17930;48.592;8.868;2023-04-09T02:58:56;16.08;;;9.55;;
6828;SDS011;17930;48.592;8.868;2023-04-09T03:01:22;17.63;;;10.75;;
6828;SDS011;17930;48.592;8.868;2023-04-09T03:03:49;18.13;;;10.55;;
6828;SDS011;17930;48.592;8.868;2023-04-09T03:06:16;20.10;;;10.98;;
6828;SDS011;17930;48.592;8.868;2023-04-09T03:08:42;17.02;;;10.77;;
6828;SDS011;17930;48.592;8.868;2023-04-09T03:11:11;20.55;;;11.80;;
6828;SDS011;17930;48.592;8.868;2023-04-09T03:13:37;18.45;;;11.40;;
6828;SDS011;17930;48.592;8.868;2023-04-09T03:16:04;15.38;;;10.40;;
6828;SDS011;17930;48.592;8.868;2023-04-09T03:18:31;19.77;;;11.35;;
6828;SDS011;17930;48.592;8.868;2023-04-09T03:20:58;16.50;;;10.10;;
6828;SDS011;17930;48.592;8.868;2023-04-09T03:23:24;17.85;;;11.57;;
6828;SDS011;17930;48.592;8.868;2023-04-09T03:25:58;15.05;;;10.38;;
6828;SDS011;17930;48.592;8.868;2023-04-09T03:28:27;16.83;;;9.60;;
6828;SDS011;17930;48.592;8.868;2023-04-09T03:30:53;17.25;;;11.07;;
6828;SDS011;17930;48.592;8.868;2023-04-09T03:33:20;17.05;;;11.02;;
6828;SDS011;17930;48.592;8.868;2023-04-09T03:35:46;16.90;;;10.27;;
6828;SDS011;17930;48.592;8.868;2023-04-09T03:38:13;16.63;;;10.23;;
6828;SDS011;17930;48.592;8.868;2023-04-09T03:40:39;17.77;;;10.43;;
6828;SDS011;17930;48.592;8.868;2023-04-09T03:43:07;16.50;;;10.25;;
6828;SDS011;17930;48.592;8.868;2023-04-09T03:45:35;16.83;;;10.45;;
6828;SDS011;17930;48.592;8.868;2023-04-09T03:48:01;16.08;;;10.13;;
6828;SDS011;17930;48.592;8.868;2023-04-09T03:50:28;17.42;;;9.90;;
6828;SDS011;17930;48.592;8.868;2023-04-09T03:52:55;17.77;;;10.80;;
6828;SDS011;17930;48.592;8.868;2023-04-09T03:55:21;18.13;;;10.75;;
6828;SDS011;17930;48.592;8.868;2023-04-09T03:57:48;17.35;;;10.60;;
6828;SDS011;17930;48.592;8.868;2023-04-09T04:00:15;16.13;;;9.90;;
6828;SDS011;17930;48.592;8.868;2023-04-09T04:02:43;18.90;;;11.50;;
6828;SDS011;17930;48.592;8.868;2023-04-09T04:05:09;17.10;;;11.05;;
6828;SDS011;17930;48.592;8.868;2023-04-09T04:07:36;16.60;;;11.05;;
6828;SDS011;17930;48.592;8.868;2023-04-09T04:10:03;18.02;;;11.02;;
6828;SDS011;17930;48.592;8.868;2023-04-09T04:12:30;18.00;;;10.90;;
6828;SDS011;17930;48.592;8.868;2023-04-09T04:14:57;18.40;;;11.13;;
6828;SDS011;17930;48.592;8.868;2023-04-09T04:17:24;18.45;;;11.32;;
6828;SDS011;17930;48.592;8.868;2023-04-09T04:19:52;17.90;;;11.80;;
6828;SDS011;17930;48.592;8.868;2023-04-09T04:22:18;17.15;;;10.98;;
6828;SDS011;17930;48.592;8.868;2023-04-09T04:24:45;21.05;;;11.70;;
6828;SDS011;17930;48.592;8.868;2023-04-09T04:27:12;20.55;;;11.85;;
6828;SDS011;17930;48.592;8.868;2023-04-09T04:29:38;18.80;;;11.13;;
6828;SDS011;17930;48.592;8.868;2023-04-09T04:32:05;18.67;;;10.98;;
6828;SDS011;17930;48.592;8.868;2023-04-09T04:34:31;18.35;;;10.90;;
6828;SDS011;17930;48.592;8.868;2023-04-09T04:36:59;18.50;;;10.93;;
6828;SDS011;17930;48.592;8.868;2023-04-09T04:39:26;16.23;;;10.45;;
6828;SDS011;17930;48.592;8.868;2023-04-09T04:41:52;16.48;;;10.88;;
6828;SDS011;17930;48.592;8.868;2023-04-09T04:44:19;17.98;;;11.30;;
6828;SDS011;17930;48.592;8.868;2023-04-09T04:46:46;19.17;;;11.57;;
6828;SDS011;17930;48.592;8.868;2023-04-09T04:49:13;20.15;;;12.82;;
6828;SDS011;17930;48.592;8.868;2023-04-09T04:51:39;20.40;;;12.65;;
6828;SDS011;17930;48.592;8.868;2023-04-09T04:54:07;20.17;;;11.52;;
6828;SDS011;17930;48.592;8.868;2023-04-09T04:56:34;21.42;;;12.15;;
6828;SDS011;17930;48.592;8.868;2023-04-09T04:59:00;22.20;;;13.05;;
6828;SDS011;17930;48.592;8.868;2023-04-09T05:01:27;23.00;;;12.40;;
6828;SDS011;17930;48.592;8.868;2023-04-09T05:03:53;20.45;;;12.13;;
6828;SDS011;17930;48.592;8.868;2023-04-09T05:06:20;23.10;;;13.20;;
6828;SDS011;17930;48.592;8.868;2023-04-09T05:08:47;22.80;;;12.43;;
6828;SDS011;17930;48.592;8.868;2023-04-09T05:11:15;30.38;;;17.63;;
6828;SDS011;17930;48.592;8.868;2023-04-09T05:13:41;30.20;;;17.35;;
6828;SDS011;17930;48.592;8.868;2023-04-09T05:16:14;25.30;;;15.52;;
6828;SDS011;17930;48.592;8.868;2023-04-09T05:18:41;20.40;;;13.38;;
6828;SDS011;17930;48.592;8.868;2023-04-09T05:21:08;17.48;;;10.68;;
6828;SDS011;17930;48.592;8.868;2023-04-09T05:23:34;21.90;;;12.20;;
6828;SDS011;17930;48.592;8.868;2023-04-09T05:26:01;18.08;;;11.02;;
6828;SDS011;17930;48.592;8.868;2023-04-09T05:28:29;18.17;;;11.38;;
6828;SDS011;17930;48.592;8.868;2023-04-09T05:30:55;17.25;;;11.50;;
6828;SDS011;17930;48.592;8.868;2023-04-09T05:33:22;18.75;;;10.18;;
6828;SDS011;17930;48.592;8.868;2023-04-09T05:35:49;17.40;;;10.73;;
6828;SDS011;17930;48.592;8.868;2023-04-09T05:38:15;20.48;;;11.05;;
6828;SDS011;17930;48.592;8.868;2023-04-09T05:40:42;18.00;;;11.35;;
6828;SDS011;17930;48.592;8.868;2023-04-09T05:43:10;18.92;;;11.13;;
6828;SDS011;17930;48.592;8.868;2023-04-09T05:45:38;18.17;;;10.80;;
6828;SDS011;17930;48.592;8.868;2023-04-09T05:48:05;18.40;;;11.07;;
6828;SDS011;17930;48.592;8.868;2023-04-09T05:50:31;16.95;;;10.30;;
6828;SDS011;17930;48.592;8.868;2023-04-09T05:52:58;17.52;;;11.18;;
6828;SDS011;17930;48.592;8.868;2023-04-09T05:55:24;16.42;;;11.25;;
6828;SDS011;17930;48.592;8.868;2023-04-09T05:57:51;15.68;;;9.95;;
6828;SDS011;17930;48.592;8.868;2023-04-09T06:00:18;18.55;;;10.43;;
6828;SDS011;17930;48.592;8.868;2023-04-09T06:02:47;15.93;;;11.00;;
6828;SDS011;17930;48.592;8.868;2023-04-09T06:05:13;17.23;;;10.48;;
6828;SDS011;17930;48.592;8.868;2023-04-09T06:07:40;19.50;;;11.65;;
6828;SDS011;17930;48.592;8.868;2023-04-09T06:10:07;17.00;;;10.68;;
6828;SDS011;17930;48.592;8.868;2023-04-09T06:12:34;17.88;;;11.38;;
6828;SDS011;17930;48.592;8.868;2023-04-09T06:15:00;16.88;;;10.77;;
6828;SDS011;17930;48.592;8.868;2023-04-09T06:17:28;15.40;;;10.20;;
6828;SDS011;17930;48.592;8.868;2023-04-09T06:19:56;16.23;;;10.33;;
6828;SDS011;17930;48.592;8.868;2023-04-09T06:22:23;16.93;;;11.23;;
6828;SDS011;17930;48.592;8.868;2023-04-09T06:24:50;15.83;;;11.03;;
6828;SDS011;17930;48.592;8.868;2023-04-09T06:27:16;14.17;;;9.83;;
6828;SDS011;17930;48.592;8.868;2023-04-09T06:29:43;16.95;;;10.30;;
6828;SDS011;17930;48.592;8.868;2023-04-09T06:32:09;15.80;;;10.60;;
6828;SDS011;17930;48.592;8.868;2023-04-09T06:34:36;15.10;;;9.60;;
6828;SDS011;17930;48.592;8.868;2023-04-09T06:37:04;14.27;;;9.63;;
6828;SDS011;17930;48.592;8.868;2023-04-09T06:39:30;15.97;;;8.87;;
6828;SDS011;17930;48.592;8.868;2023-04-09T06:41:57;15.60;;;9.07;;
6828;SDS011;17930;48.592;8.868;2023-04-09T06:44:24;13.07;;;9.30;;
6828;SDS011;17930;48.592;8.868;2023-04-09T06:46:51;14.03;;;8.87;;
6828;SDS011;17930;48.592;8.868;2023-04-09T06:49:18;14.40;;;9.43;;
6828;SDS011;17930;48.592;8.868;2023-04-09T06:51:44;14.33;;;9.83;;
6828;SDS011;17930;48.592;8.868;2023-04-09T06:54:13;11.77;;;8.83;;
6828;SDS011;17930;48.592;8.868;2023-04-09T06:56:39;11.77;;;9.13;;
6828;SDS011;17930;48.592;8.868;2023-04-09T06:59:06;14.93;;;9.27;;
6828;SDS011;17930;48.592;8.868;2023-04-09T07:01:33;14.13;;;8.87;;
6828;SDS011;17930;48.592;8.868;2023-04-09T07:04:02;13.30;;;9.27;;
6828;SDS011;17930;48.592;8.868;2023-04-09T07:06:28;11.00;;;8.23;;
6828;SDS011;17930;48.592;8.868;2023-04-09T07:08:55;11.53;;;9.00;;
6828;SDS011;17930;48.592;8.868;2023-04-09T07:11:26;13.57;;;9.30;;
6828;SDS011;17930;48.592;8.868;2023-04-09T07:13:52;13.60;;;10.03;;
6828;SDS011;17930;48.592;8.868;2023-04-09T07:16:21;11.57;;;9.20;;
6828;SDS011;17930;48.592;8.868;2023-04-09T07:18:47;12.53;;;8.60;;
6828;SDS011;17930;48.592;8.868;2023-04-09T07:21:15;11.00;;;9.03;;
6828;SDS011;17930;48.592;8.868;2023-04-09T07:23:42;13.40;;;9.53;;
6828;SDS011;17930;48.592;8.868;2023-04-09T07:26:08;12.97;;;9.53;;
6828;SDS011;17930;48.592;8.868;2023-04-09T07:28:37;13.80;;;9.43;;
6828;SDS011;17930;48.592;8.868;2023-04-09T07:31:03;14.13;;;9.87;;
6828;SDS011;17930;48.592;8.868;2023-04-09T07:33:30;13.83;;;10.07;;
6828;SDS011;17930;48.592;8.868;2023-04-09T07:35:57;13.23;;;9.50;;
6828;SDS011;17930;48.592;8.868;2023-04-09T07:38:23;13.57;;;10.00;;
6828;SDS011;17930;48.592;8.868;2023-04-09T07:40:50;13.07;;;9.07;;
6828;SDS011;17930;48.592;8.868;2023-04-09T07:43:17;13.23;;;9.27;;
6828;SDS011;17930;48.592;8.868;2023-04-09T07:45:45;13.40;;;8.83;;
6828;SDS011;17930;48.592;8.868;2023-04-09T07:48:13;14.40;;;9.30;;
6828;SDS011;17930;48.592;8.868;2023-04-09T07:50:40;12.40;;;8.63;;
6828;SDS011;17930;48.592;8.868;2023-04-09T07:53:07;30.90;;;22.17;;
6828;SDS011;17930;48.592;8.868;2023-04-09T07:55:34;21.77;;;15.20;;
6828;SDS011;17930;48.592;8.868;2023-04-09T07:58:00;12.13;;;8.73;;
6828;SDS011;17930;48.592;8.868;2023-04-09T08:00:28;11.50;;;9.03;;
6828;SDS011;17930;48.592;8.868;2023-04-09T08:02:56;12.47;;;8.80;;
6828;SDS011;17930;48.592;8.868;2023-04-09T08:05:23;11.70;;;8.47;;
6828;SDS011;17930;48.592;8.868;2023-04-09T08:07:49;9.83;;;7.50;;
6828;SDS011;17930;48.592;8.868;2023-04-09T08:10:16;10.03;;;7.33;;
6828;SDS011;17930;48.592;8.868;2023-04-09T08:12:43;12.20;;;8.57;;
6828;SDS011;17930;48.592;8.868;2023-04-09T08:15:10;10.70;;;8.03;;
6828;SDS011;17930;48.592;8.868;2023-04-09T08:17:36;11.13;;;7.83;;
6828;SDS011;17930;48.592;8.868;2023-04-09T08:20:05;8.67;;;7.20;;
6828;SDS011;17930;48.592;8.868;2023-04-09T08:22:32;9.73;;;6.90;;
6828;SDS011;17930;48.592;8.868;2023-04-09T08:24:59;9.83;;;7.17;;
6828;SDS011;17930;48.592;8.868;2023-04-09T08:27:26;8.27;;;5.80;;
6828;SDS011;17930;48.592;8.868;2023-04-09T08:29:53;7.43;;;5.47;;
6828;SDS011;17930;48.592;8.868;2023-04-09T08:32:19;7.60;;;5.30;;
6828;SDS011;17930;48.592;8.868;2023-04-09T08:34:46;8.23;;;4.93;;
6828;SDS011;17930;48.592;8.868;2023-04-09T08:37:15;6.10;;;4.77;;
6828;SDS011;17930;48.592;8.868;2023-04-09T08:39:41;6.17;;;4.67;;
6828;SDS011;17930;48.592;8.868;2023-04-09T08:42:08;9.80;;;5.30;;
6828;SDS011;17930;48.592;8.868;2023-04-09T08:44:36;8.47;;;5.33;;
6828;SDS011;17930;48.592;8.868;2023-04-09T08:47:06;6.93;;;5.00;;
6828;SDS011;17930;48.592;8.868;2023-04-09T08:49:35;5.83;;;4.33;;
6828;SDS011;17930;48.592;8.868;2023-04-09T08:52:04;6.17;;;3.97;;
6828;SDS011;17930;48.592;8.868;2023-04-09T08:54:32;6.13;;;4.20;;
6828;SDS011;17930;48.592;8.868;2023-04-09T08:56:59;4.60;;;3.33;;
6828;SDS011;17930;48.592;8.868;2023-04-09T08:59:30;3.30;;;2.80;;
6828;SDS011;17930;48.592;8.868;2023-04-09T09:02:09;2.90;;;2.30;;
6828;SDS011;17930;48.592;8.868;2023-04-09T09:04:42;3.17;;;2.70;;
6828;SDS011;17930;48.592;8.868;2023-04-09T09:07:10;3.83;;;2.40;;
6828;SDS011;17930;48.592;8.868;2023-04-09T09:09:53;2.57;;;2.37;;
6828;SDS011;17930;48.592;8.868;2023-04-09T09:12:34;3.40;;;2.60;;
6828;SDS011;17930;48.592;8.868;2023-04-09T09:15:03;2.97;;;2.13;;
6828;SDS011;17930;48.592;8.868;2023-04-09T09:17:30;4.60;;;2.70;;
6828;SDS011;17930;48.592;8.868;2023-04-09T09:19:57;5.03;;;2.93;;
6828;SDS011;17930;48.592;8.868;2023-04-09T09:22:25;5.60;;;3.87;;
6828;SDS011;17930;48.592;8.868;2023-04-09T09:24:53;2.97;;;2.40;;
6828;SDS011;17930;48.592;8.868;2023-04-09T09:27:31;3.30;;;2.57;;
6828;SDS011;17930;48.592;8.868;2023-04-09T09:30:01;3.60;;;2.77;;
6828;SDS011;17930;48.592;8.868;2023-04-09T09:32:28;4.07;;;2.70;;
6828;SDS011;17930;48.592;8.868;2023-04-09T09:34:59;3.20;;;2.63;;
6828;SDS011;17930;48.592;8.868;2023-04-09T09:37:28;3.93;;;2.47;;
6828;SDS011;17930;48.592;8.868;2023-04-09T09:39:57;4.53;;;3.40;;
6828;SDS011;17930;48.592;8.868;2023-04-09T09:42:23;4.63;;;3.40;;
6828;SDS011;17930;48.592;8.868;2023-04-09T09:44:52;4.67;;;3.07;;
6828;SDS011;17930;48.592;8.868;2023-04-09T09:47:20;4.47;;;3.37;;
6828;SDS011;17930;48.592;8.868;2023-04-09T09:49:49;4.57;;;3.23;;
6828;SDS011;17930;48.592;8.868;2023-04-09T09:52:19;5.03;;;3.57;;
6828;SDS011;17930;48.592;8.868;2023-04-09T09:54:50;4.67;;;3.47;;
6828;SDS011;17930;48.592;8.868;2023-04-09T09:57:19;4.13;;;3.17;;
6828;SDS011;17930;48.592;8.868;2023-04-09T09:59:52;4.43;;;3.20;;
6828;SDS011;17930;48.592;8.868;2023-04-09T10:02:21;4.00;;;3.33;;
6828;SDS011;17930;48.592;8.868;2023-04-09T10:04:51;5.60;;;3.00;;
6828;SDS011;17930;48.592;8.868;2023-04-09T10:07:18;5.23;;;3.70;;
6828;SDS011;17930;48.592;8.868;2023-04-09T10:09:48;5.13;;;3.60;;
6828;SDS011;17930;48.592;8.868;2023-04-09T10:12:16;5.00;;;3.40;;
6828;SDS011;17930;48.592;8.868;2023-04-09T10:14:45;6.70;;;4.20;;
6828;SDS011;17930;48.592;8.868;2023-04-09T10:17:13;7.50;;;3.87;;
6828;SDS011;17930;48.592;8.868;2023-04-09T10:19:40;6.53;;;4.20;;
6828;SDS011;17930;48.592;8.868;2023-04-09T10:22:12;4.97;;;3.87;;
6828;SDS011;17930;48.592;8.868;2023-04-09T10:24:43;8.07;;;5.80;;
6828;SDS011;17930;48.592;8.868;2023-04-09T10:27:11;7.43;;;4.90;;
6828;SDS011;17930;48.592;8.868;2023-04-09T10:29:42;6.00;;;3.80;;
6828;SDS011;17930;48.592;8.868;2023-04-09T10:32:11;7.03;;;4.53;;
6828;SDS011;17930;48.592;8.868;2023-04-09T10:34:45;5.40;;;4.10;;
6828;SDS011;17930;48.592;8.868;2023-04-09T10:37:13;5.23;;;3.60;;
6828;SDS011;17930;48.592;8.868;2023-04-09T10:39:43;5.50;;;4.37;;
6828;SDS011;17930;48.592;8.868;2023-04-09T10:42:12;5.07;;;4.00;;
6828;SDS011;17930;48.592;8.868;2023-04-09T10:44:40;5.83;;;4.67;;
6828;SDS011;17930;48.592;8.868;2023-04-09T10:47:07;5.10;;;3.73;;
6828;SDS011;17930;48.592;8.868;2023-04-09T10:49:36;5.23;;;3.93;;
6828;SDS011;17930;48.592;8.868;2023-04-09T10:52:03;5.10;;;3.80;;
6828;SDS011;17930;48.592;8.868;2023-04-09T10:54:35;5.63;;;3.80;;
6828;SDS011;17930;48.592;8.868;2023-04-09T10:59:56;4.63;;;3.20;;
6828;SDS011;17930;48.592;8.868;2023-04-09T11:05:29;4.10;;;3.43;;
6828;SDS011;17930;48.592;8.868;2023-04-09T11:08:02;4.73;;;4.10;;
6828;SDS011;17930;48.592;8.868;2023-04-09T11:10:30;5.70;;;4.40;;
6828;SDS011;17930;48.592;8.868;2023-04-09T11:12:57;6.77;;;4.20;;
6828;SDS011;17930;48.592;8.868;2023-04-09T11:15:24;6.53;;;4.43;;
6828;SDS011;17930;48.592;8.868;2023-04-09T11:17:51;6.40;;;4.40;;
6828;SDS011;17930;48.592;8.868;2023-04-09T11:20:19;6.87;;;4.87;;
6828;SDS011;17930;48.592;8.868;2023-04-09T11:22:49;6.40;;;4.40;;
6828;SDS011;17930;48.592;8.868;2023-04-09T11:25:20;5.47;;;4.67;;
6828;SDS011;17930;48.592;8.868;2023-04-09T11:27:48;5.10;;;4.50;;
6828;SDS011;17930;48.592;8.868;2023-04-09T11:30:15;5.60;;;4.60;;
6828;SDS011;17930;48.592;8.868;2023-04-09T11:32:42;5.50;;;4.40;;
6828;SDS011;17930;48.592;8.868;2023-04-09T11:35:11;5.30;;;4.43;;
6828;SDS011;17930;48.592;8.868;2023-04-09T11:37:40;6.47;;;4.93;;
6828;SDS011;17930;48.592;8.868;2023-04-09T11:40:12;5.07;;;4.30;;
6828;SDS011;17930;48.592;8.868;2023-04-09T11:42:41;5.23;;;4.27;;
6828;SDS011;17930;48.592;8.868;2023-04-09T11:45:08;5.77;;;4.83;;
6828;SDS011;17930;48.592;8.868;2023-04-09T11:47:35;5.30;;;4.00;;
6828;SDS011;17930;48.592;8.868;2023-04-09T11:50:04;6.50;;;5.07;;
6828;SDS011;17930;48.592;8.868;2023-04-09T11:52:32;6.23;;;4.80;;
6828;SDS011;17930;48.592;8.868;2023-04-09T11:55:00;5.27;;;4.13;;
6828;SDS011;17930;48.592;8.868;2023-04-09T11:57:36;4.07;;;3.67;;
6828;SDS011;17930;48.592;8.868;2023-04-09T12:00:07;5.53;;;4.27;;
6828;SDS011;17930;48.592;8.868;2023-04-09T12:02:36;4.73;;;4.17;;
6828;SDS011;17930;48.592;8.868;2023-04-09T12:05:05;4.70;;;3.90;;
6828;SDS011;17930;48.592;8.868;2023-04-09T12:07:33;5.40;;;4.43;;
6828;SDS011;17930;48.592;8.868;2023-04-09T12:10:02;5.50;;;4.00;;
6828;SDS011;17930;48.592;8.868;2023-04-09T12:12:30;6.20;;;4.03;;
6828;SDS011;17930;48.592;8.868;2023-04-09T12:15:07;5.07;;;4.03;;
6828;SDS011;17930;48.592;8.868;2023-04-09T12:17:36;5.07;;;4.13;;
6828;SDS011;17930;48.592;8.868;2023-04-09T12:20:03;5.63;;;4.47;;
6828;SDS011;17930;48.592;8.868;2023-04-09T12:22:32;4.67;;;3.53;;
6828;SDS011;17930;48.592;8.868;2023-04-09T12:25:00;5.03;;;3.50;;
6828;SDS011;17930;48.592;8.868;2023-04-09T12:27:26;5.53;;;3.93;;
6828;SDS011;17930;48.592;8.868;2023-04-09T12:29:54;5.27;;;4.27;;
6828;SDS011;17930;48.592;8.868;2023-04-09T12:32:21;4.83;;;3.80;;
6828;SDS011;17930;48.592;8.868;2023-04-09T12:34:48;3.83;;;3.20;;
6828;SDS011;17930;48.592;8.868;2023-04-09T12:37:15;3.90;;;3.40;;
6828;SDS011;17930;48.592;8.868;2023-04-09T12:39:42;5.00;;;4.20;;
6828;SDS011;17930;48.592;8.868;2023-04-09T12:42:08;4.37;;;3.97;;
6828;SDS011;17930;48.592;8.868;2023-04-09T12:44:35;4.17;;;3.77;;
6828;SDS011;17930;48.592;8.868;2023-04-09T12:47:03;4.17;;;3.77;;
6828;SDS011;17930;48.592;8.868;2023-04-09T12:49:31;4.33;;;3.60;;
6828;SDS011;17930;48.592;8.868;2023-04-09T12:51:57;4.57;;;3.50;;
6828;SDS011;17930;48.592;8.868;2023-04-09T12:54:24;4.30;;;3.37;;
6828;SDS011;17930;48.592;8.868;2023-04-09T12:56:51;5.50;;;4.17;;
6828;SDS011;17930;48.592;8.868;2023-04-09T12:59:17;5.27;;;3.63;;
6828;SDS011;17930;48.592;8.868;2023-04-09T13:01:44;4.03;;;3.20;;
6828;SDS011;17930;48.592;8.868;2023-04-09T13:04:11;4.83;;;3.57;;
6828;SDS011;17930;48.592;8.868;2023-04-09T13:06:39;4.10;;;3.63;;
6828;SDS011;17930;48.592;8.868;2023-04-09T13:09:05;4.03;;;3.63;;
6828;SDS011;17930;48.592;8.868;2023-04-09T13:11:32;3.03;;;2.57;;
6828;SDS011;17930;48.592;8.868;2023-04-09T13:13:58;3.60;;;3.30;;
6828;SDS011;17930;48.592;8.868;2023-04-09T13:16:25;4.40;;;3.70;;
6828;SDS011;17930;48.592;8.868;2023-04-09T13:18:52;3.83;;;3.47;;
6828;SDS011;17930;48.592;8.868;2023-04-09T13:21:19;4.17;;;3.40;;
6828;SDS011;17930;48.592;8.868;2023-04-09T13:23:47;3.53;;;3.23;;
6828;SDS011;17930;48.592;8.868;2023-04-09T13:26:13;4.00;;;3.40;;
6828;SDS011;17930;48.592;8.868;2023-04-09T13:28:40;4.00;;;3.27;;
6828;SDS011;17930;48.592;8.868;2023-04-09T13:31:07;3.43;;;3.13;;
6828;SDS011;17930;48.592;8.868;2023-04-09T13:33:33;4.13;;;3.73;;
6828;SDS011;17930;48.592;8.868;2023-04-09T13:36:00;3.80;;;3.40;;
6828;SDS011;17930;48.592;8.868;2023-04-09T13:38:26;3.93;;;3.07;;
6828;SDS011;17930;48.592;8.868;2023-04-09T13:40:54;3.77;;;3.30;;
6828;SDS011;17930;48.592;8.868;2023-04-09T13:43:21;4.23;;;3.53;;
6828;SDS011;17930;48.592;8.868;2023-04-09T13:45:52;3.97;;;3.57;;
6828;SDS011;17930;48.592;8.868;2023-04-09T13:48:18;4.43;;;3.50;;
6828;SDS011;17930;48.592;8.868;2023-04-09T13:50:46;4.83;;;3.90;;
6828;SDS011;17930;48.592;8.868;2023-04-09T13:53:12;4.13;;;3.17;;
6828;SDS011;17930;48.592;8.868;2023-04-09T13:55:40;3.50;;;3.13;;
6828;SDS011;17930;48.592;8.868;2023-04-09T13:58:08;4.27;;;3.50;;
6828;SDS011;17930;48.592;8.868;2023-04-09T14:00:34;3.53;;;3.00;;
6828;SDS011;17930;48.592;8.868;2023-04-09T14:03:01;3.03;;;2.70;;
6828;SDS011;17930;48.592;8.868;2023-04-09T14:05:29;3.67;;;2.97;;
6828;SDS011;17930;48.592;8.868;2023-04-09T14:07:56;4.20;;;3.30;;
6828;SDS011;17930;48.592;8.868;2023-04-09T14:10:23;3.13;;;2.83;;
6828;SDS011;17930;48.592;8.868;2023-04-09T14:12:49;3.70;;;3.30;;
6828;SDS011;17930;48.592;8.868;2023-04-09T14:15:17;3.63;;;3.33;;
6828;SDS011;17930;48.592;8.868;2023-04-09T14:17:44;3.87;;;3.17;;
6828;SDS011;17930;48.592;8.868;2023-04-09T14:20:11;3.70;;;3.07;;
6828;SDS011;17930;48.592;8.868;2023-04-09T14:22:38;3.37;;;2.70;;
6828;SDS011;17930;48.592;8.868;2023-04-09T14:25:05;3.90;;;3.03;;
6828;SDS011;17930;48.592;8.868;2023-04-09T14:27:32;3.67;;;2.90;;
6828;SDS011;17930;48.592;8.868;2023-04-09T14:29:59;3.10;;;2.57;;
6828;SDS011;17930;48.592;8.868;2023-04-09T14:32:28;3.30;;;2.87;;
6828;SDS011;17930;48.592;8.868;2023-04-09T14:34:55;4.20;;;2.97;;
6828;SDS011;17930;48.592;8.868;2023-04-09T14:37:21;3.70;;;2.70;;
6828;SDS011;17930;48.592;8.868;2023-04-09T14:39:48;4.13;;;3.07;;
6828;SDS011;17930;48.592;8.868;2023-04-09T14:42:15;3.30;;;2.80;;
6828;SDS011;17930;48.592;8.868;2023-04-09T14:44:41;7.17;;;5.00;;
6828;SDS011;17930;48.592;8.868;2023-04-09T14:47:08;7.67;;;5.07;;
6828;SDS011;17930;48.592;8.868;2023-04-09T14:49:36;4.70;;;3.53;;
6828;SDS011;17930;48.592;8.868;2023-04-09T14:52:02;3.93;;;3.17;;
6828;SDS011;17930;48.592;8.868;2023-04-09T14:54:29;3.43;;;2.50;;
6828;SDS011;17930;48.592;8.868;2023-04-09T14:56:56;4.77;;;2.70;;
6828;SDS011;17930;48.592;8.868;2023-04-09T14:59:23;4.00;;;2.73;;